createdAt,value
2018-02-21T00:02:21.467Z,0.10
2018-02-21T00:04:48.936Z,0.00
2018-02-21T00:07:16.686Z,0.10
2018-02-21T00:09:44.589Z,0.10
2018-02-21T00:12:12.998Z,0.10
2018-02-21T00:14:40.462Z,0.20
2018-02-21T00:17:08.681Z,0.30
2018-02-21T00:19:37.733Z,0.20
2018-02-21T00:22:05.642Z,0.20
2018-02-21T00:24:33.088Z,0.20
2018-02-21T00:27:00.538Z,0.20
2018-02-21T00:29:28.538Z,0.20
2018-02-21T00:31:56.776Z,0.10
2018-02-21T00:34:24.631Z,0.00
2018-02-21T00:36:52.546Z,0.10
2018-02-21T00:39:21.173Z,0.10
2018-02-21T00:41:48.630Z,0.10
2018-02-21T00:44:16.098Z,0.10
2018-02-21T00:46:45.069Z,0.10
2018-02-21T00:49:12.546Z,0.00
2018-02-21T00:51:40.023Z,0.10
2018-02-21T00:54:07.557Z,0.10
2018-02-21T00:56:35.118Z,0.10
2018-02-21T00:59:02.578Z,0.00
2018-02-21T01:01:30.132Z,0.00
2018-02-21T01:03:57.586Z,0.00
2018-02-21T01:06:25.581Z,0.00
2018-02-21T01:08:53.061Z,0.00
2018-02-21T01:11:21.273Z,-0.10
2018-02-21T01:13:48.811Z,-0.10
2018-02-21T01:16:16.274Z,-0.10
2018-02-21T01:18:43.746Z,-0.10
2018-02-21T01:21:11.197Z,-0.10
2018-02-21T01:23:38.649Z,-0.10
2018-02-21T01:26:06.118Z,-0.10
2018-02-21T01:28:33.572Z,-0.10
2018-02-21T01:31:01.038Z,-0.10
2018-02-21T01:33:28.485Z,0.00
2018-02-21T01:35:55.945Z,0.00
2018-02-21T01:38:24.674Z,0.10
2018-02-21T01:40:53.032Z,0.10
2018-02-21T01:43:20.480Z,0.10
2018-02-21T01:45:48.706Z,0.00
2018-02-21T01:48:16.797Z,0.10
2018-02-21T01:50:52.052Z,0.00
2018-02-21T01:53:19.501Z,0.00
2018-02-21T01:55:46.954Z,0.00
2018-02-21T01:58:14.429Z,0.00
2018-02-21T02:00:41.878Z,0.00
2018-02-21T02:03:09.712Z,-0.10
2018-02-21T02:05:37.170Z,-0.10
2018-02-21T02:08:04.630Z,-0.10
2018-02-21T02:10:32.081Z,0.00
2018-02-21T02:12:59.541Z,0.00
2018-02-21T02:15:26.994Z,0.00
2018-02-21T02:17:54.454Z,0.00
2018-02-21T02:20:22.334Z,0.00
2018-02-21T02:22:50.809Z,0.10
2018-02-21T02:25:18.692Z,0.00
2018-02-21T02:27:46.138Z,0.10
2018-02-21T02:30:13.594Z,0.00
2018-02-21T02:32:41.685Z,0.00
2018-02-21T02:35:09.142Z,0.00
2018-02-21T02:37:36.592Z,0.00
2018-02-21T02:40:04.047Z,0.00
2018-02-21T02:42:31.518Z,-0.10
2018-02-21T02:44:58.977Z,-0.10
2018-02-21T02:47:26.973Z,-0.10
2018-02-21T02:49:54.434Z,0.00
2018-02-21T02:52:21.888Z,0.00
2018-02-21T02:54:49.619Z,0.00
2018-02-21T02:57:17.510Z,0.10
2018-02-21T02:59:45.728Z,0.10
2018-02-21T03:02:13.617Z,0.10
2018-02-21T03:04:41.062Z,0.10
2018-02-21T03:07:08.517Z,0.10
2018-02-21T03:09:36.517Z,0.00
2018-02-21T03:12:04.856Z,0.10
2018-02-21T03:14:32.314Z,0.10
2018-02-21T03:16:59.772Z,0.10
2018-02-21T03:19:28.470Z,0.10
2018-02-21T03:21:55.925Z,0.10
2018-02-21T03:24:23.377Z,0.10
2018-02-21T03:26:50.842Z,0.10
2018-02-21T03:29:18.293Z,0.10
2018-02-21T03:31:45.742Z,0.10
2018-02-21T03:34:13.197Z,0.00
2018-02-21T03:36:41.393Z,0.00
2018-02-21T03:39:08.851Z,-0.10
2018-02-21T03:41:36.301Z,-0.10
2018-02-21T03:44:03.757Z,-0.20
2018-02-21T03:46:31.212Z,-0.30
2018-02-21T03:49:01.028Z,-0.30
2018-02-21T03:51:28.475Z,-0.20
2018-02-21T03:53:55.934Z,-0.20
2018-02-21T03:56:23.393Z,0.00
2018-02-21T03:58:50.842Z,0.10
2018-02-21T04:01:18.302Z,0.10
2018-02-21T04:03:46.331Z,0.10
2018-02-21T04:06:14.421Z,0.20
2018-02-21T04:08:42.305Z,0.20
2018-02-21T04:11:09.757Z,0.20
2018-02-21T04:13:37.585Z,0.20
2018-02-21T04:16:05.029Z,0.10
2018-02-21T04:18:32.480Z,0.00
2018-02-21T04:21:00.814Z,-0.10
2018-02-21T04:23:28.261Z,-0.20
2018-02-21T04:25:55.718Z,-0.20
2018-02-21T04:28:23.180Z,-0.20
2018-02-21T04:30:50.640Z,-0.20
2018-02-21T04:33:18.918Z,-0.20
2018-02-21T04:35:46.371Z,-0.20
2018-02-21T04:38:20.462Z,-0.30
2018-02-21T04:40:47.917Z,-0.40
2018-02-21T04:43:15.390Z,-0.40
2018-02-21T04:45:43.544Z,-0.50
2018-02-21T04:48:10.998Z,-0.60
2018-02-21T04:50:38.462Z,-0.70
2018-02-21T04:53:05.921Z,-0.80
2018-02-21T04:55:39.190Z,-0.80
2018-02-21T04:58:09.217Z,-0.90
2018-02-21T05:00:36.694Z,-1.00
2018-02-21T05:03:04.186Z,-1.10
2018-02-21T05:05:31.630Z,-1.10
2018-02-21T05:07:59.855Z,-1.30
2018-02-21T05:10:27.313Z,-1.40
2018-02-21T05:12:54.801Z,-1.30
2018-02-21T05:15:22.259Z,-1.40
2018-02-21T05:17:49.989Z,-1.50
2018-02-21T05:20:17.754Z,-1.50
2018-02-21T05:22:45.244Z,-1.50
2018-02-21T05:25:13.085Z,-1.50
2018-02-21T05:27:40.549Z,-1.60
2018-02-21T05:30:08.005Z,-1.70
2018-02-21T05:32:35.468Z,-1.70
2018-02-21T05:35:02.925Z,-1.80
2018-02-21T05:37:30.379Z,-1.90
2018-02-21T05:39:57.944Z,-2.00
2018-02-21T05:42:25.401Z,-2.00
2018-02-21T05:44:53.663Z,-2.00
2018-02-21T05:47:21.121Z,-2.00
2018-02-21T05:49:48.568Z,-1.90
2018-02-21T05:52:16.030Z,-1.90
2018-02-21T05:54:44.681Z,-1.90
2018-02-21T05:57:12.137Z,-1.90
2018-02-21T05:59:39.599Z,-2.00
2018-02-21T06:02:07.037Z,-2.00
2018-02-21T06:04:35.250Z,-2.00
2018-02-21T06:07:02.704Z,-1.90
2018-02-21T06:09:30.167Z,-1.90
2018-02-21T06:11:57.706Z,-1.90
2018-02-21T06:14:25.169Z,-1.90
2018-02-21T06:16:53.045Z,-1.90
2018-02-21T06:19:20.502Z,-2.00
2018-02-21T06:21:47.957Z,-2.00
2018-02-21T06:24:15.686Z,-2.00
2018-02-21T06:26:43.912Z,-2.00
2018-02-21T06:29:11.389Z,-2.00
2018-02-21T06:31:39.265Z,-2.10
2018-02-21T06:34:07.938Z,-2.20
2018-02-21T06:36:36.408Z,-2.30
2018-02-21T06:39:03.866Z,-2.30
2018-02-21T06:41:32.118Z,-2.30
2018-02-21T06:43:59.564Z,-2.30
2018-02-21T06:46:27.088Z,-2.20
2018-02-21T06:48:54.549Z,-2.20
2018-02-21T06:51:22.654Z,-2.20
2018-02-21T06:53:50.682Z,-2.20
2018-02-21T06:56:18.137Z,-2.20
2018-02-21T06:58:46.626Z,-2.20
2018-02-21T07:01:14.839Z,-2.10
2018-02-21T07:03:42.297Z,-2.10
2018-02-21T07:06:09.757Z,-1.90
2018-02-21T07:08:37.217Z,-1.60
2018-02-21T07:11:04.680Z,-1.50
2018-02-21T07:13:32.133Z,-1.40
2018-02-21T07:15:59.605Z,-1.30
2018-02-21T07:18:27.149Z,-1.30
2018-02-21T07:20:54.605Z,-1.40
2018-02-21T07:23:22.620Z,-1.30
2018-02-21T07:25:50.077Z,-1.20
2018-02-21T07:28:17.951Z,-0.90
2018-02-21T07:30:45.407Z,-0.50
2018-02-21T07:33:12.910Z,-0.20
2018-02-21T07:35:40.367Z,0.20
2018-02-21T07:38:09.757Z,0.40
2018-02-21T07:40:37.922Z,0.90
2018-02-21T07:43:05.993Z,0.90
2018-02-21T07:45:34.003Z,1.10
2018-02-21T07:48:02.638Z,1.20
2018-02-21T07:50:31.233Z,1.20
2018-02-21T07:52:58.699Z,1.30
2018-02-21T07:55:26.150Z,1.40
2018-02-21T07:57:54.401Z,1.50
2018-02-21T08:00:21.841Z,1.50
2018-02-21T08:02:51.016Z,1.60
2018-02-21T08:05:19.231Z,1.70
2018-02-21T08:07:53.201Z,1.70
2018-02-21T08:10:21.433Z,1.60
2018-02-21T08:12:48.885Z,1.60
2018-02-21T08:15:16.353Z,1.70
2018-02-21T08:17:45.741Z,1.70
2018-02-21T08:20:13.695Z,1.70
2018-02-21T08:22:41.149Z,1.90
2018-02-21T08:25:09.450Z,2.20
2018-02-21T08:27:36.893Z,2.40
2018-02-21T08:30:05.106Z,2.40
2018-02-21T08:32:34.057Z,2.30
2018-02-21T08:35:01.518Z,2.30
2018-02-21T08:37:28.974Z,2.20
2018-02-21T08:39:56.444Z,2.30
2018-02-21T08:42:23.889Z,2.40
2018-02-21T08:44:51.880Z,2.50
2018-02-21T08:47:19.349Z,2.40
2018-02-21T08:49:47.565Z,2.60
2018-02-21T08:52:15.017Z,2.60
2018-02-21T08:54:42.477Z,2.70
2018-02-21T08:57:09.970Z,3.00
2018-02-21T08:59:38.196Z,3.20
2018-02-21T09:02:05.708Z,3.20
2018-02-21T09:04:39.686Z,3.30
2018-02-21T09:07:07.134Z,3.20
2018-02-21T09:09:35.418Z,3.20
2018-02-21T09:12:02.891Z,3.40
2018-02-21T09:14:30.336Z,3.50
2018-02-21T09:16:57.786Z,3.30
2018-02-21T09:19:25.250Z,3.30
2018-02-21T09:21:53.728Z,3.50
2018-02-21T09:24:21.193Z,3.70
2018-02-21T09:26:49.445Z,3.80
2018-02-21T09:29:17.183Z,3.70
2018-02-21T09:31:45.419Z,3.70
2018-02-21T09:34:12.869Z,3.70
2018-02-21T09:36:41.061Z,3.60
2018-02-21T09:39:08.501Z,3.90
2018-02-21T09:41:36.384Z,4.00
2018-02-21T09:44:03.839Z,4.10
2018-02-21T09:46:31.377Z,4.00
2018-02-21T09:48:58.829Z,4.00
2018-02-21T09:51:26.503Z,4.10
2018-02-21T09:53:53.957Z,4.60
2018-02-21T09:56:21.417Z,5.10
2018-02-21T09:58:48.978Z,5.10
2018-02-21T10:01:16.443Z,5.30
2018-02-21T10:03:43.881Z,5.50
2018-02-21T10:06:11.334Z,5.70
2018-02-21T10:08:41.360Z,5.80
2018-02-21T10:11:08.825Z,6.00
2018-02-21T10:13:36.275Z,6.00
2018-02-21T10:16:03.722Z,6.20
2018-02-21T10:18:31.189Z,6.20
2018-02-21T10:21:00.238Z,6.10
2018-02-21T10:23:28.077Z,6.10
2018-02-21T10:25:56.637Z,6.10
2018-02-21T10:28:24.094Z,6.10
2018-02-21T10:30:51.549Z,6.10
2018-02-21T10:33:19.004Z,6.50
2018-02-21T10:35:46.453Z,6.70
2018-02-21T10:38:13.903Z,7.20
2018-02-21T10:40:41.938Z,7.60
2018-02-21T10:43:10.134Z,7.50
2018-02-21T10:45:37.594Z,7.30
2018-02-21T10:48:05.039Z,6.80
2018-02-21T10:50:32.489Z,7.00
2018-02-21T10:53:00.398Z,7.80
2018-02-21T10:55:28.626Z,8.90
2018-02-21T10:57:56.098Z,8.80
2018-02-21T11:00:29.777Z,9.30
2018-02-21T11:02:57.238Z,9.40
2018-02-21T11:05:24.691Z,9.30
2018-02-21T11:07:52.178Z,8.90
2018-02-21T11:10:19.734Z,8.30
2018-02-21T11:12:47.190Z,8.10
2018-02-21T11:15:15.909Z,8.10
2018-02-21T11:17:44.158Z,7.80
2018-02-21T11:20:11.613Z,7.80
2018-02-21T11:22:39.166Z,8.60
2018-02-21T11:25:07.235Z,8.40
2018-02-21T11:27:35.123Z,8.30
2018-02-21T11:30:02.592Z,8.30
2018-02-21T11:32:30.815Z,8.40
2018-02-21T11:35:02.613Z,8.40
2018-02-21T11:37:30.504Z,8.70
2018-02-21T11:39:57.961Z,8.40
2018-02-21T11:42:25.410Z,9.00
2018-02-21T11:44:54.096Z,9.20
2018-02-21T11:47:23.705Z,9.20
2018-02-21T11:49:51.926Z,9.20
2018-02-21T11:52:19.379Z,9.20
2018-02-21T11:54:46.841Z,9.70
2018-02-21T11:57:14.738Z,10.10
2018-02-21T11:59:42.202Z,10.60
2018-02-21T12:02:10.417Z,10.40
2018-02-21T12:04:40.348Z,10.40
2018-02-21T12:07:07.810Z,10.20
2018-02-21T12:09:35.265Z,10.40
2018-02-21T12:12:02.720Z,10.80
2018-02-21T12:14:31.846Z,11.30
2018-02-21T12:16:59.885Z,11.30
2018-02-21T12:19:27.337Z,11.00
2018-02-21T12:21:54.794Z,10.90
2018-02-21T12:24:23.026Z,10.00
2018-02-21T12:26:50.481Z,10.00
2018-02-21T12:29:18.702Z,10.30
2018-02-21T12:31:49.761Z,10.30
2018-02-21T12:34:17.259Z,10.60
2018-02-21T12:36:44.709Z,10.40
2018-02-21T12:39:18.386Z,10.20
2018-02-21T12:41:45.833Z,9.80
2018-02-21T12:44:13.288Z,9.50
2018-02-21T12:46:41.328Z,9.60
2018-02-21T12:49:09.354Z,9.80
2018-02-21T12:51:37.581Z,9.70
2018-02-21T12:54:05.043Z,9.70
2018-02-21T12:56:32.513Z,9.40
2018-02-21T12:58:59.965Z,9.10
2018-02-21T13:01:27.807Z,9.30
2018-02-21T13:03:56.518Z,9.40
2018-02-21T13:06:24.486Z,9.50
2018-02-21T13:08:52.365Z,9.60
2018-02-21T13:11:19.916Z,10.00
2018-02-21T13:13:48.533Z,10.10
2018-02-21T13:16:17.270Z,9.70
2018-02-21T13:18:44.746Z,9.70
2018-02-21T13:21:14.748Z,9.60
2018-02-21T13:23:42.201Z,9.80
2018-02-21T13:26:09.914Z,9.40
2018-02-21T13:28:38.126Z,9.60
2018-02-21T13:31:05.585Z,9.60
2018-02-21T13:33:33.057Z,9.90
2018-02-21T13:36:00.612Z,10.40
2018-02-21T13:38:28.570Z,10.60
2018-02-21T13:40:56.185Z,10.00
2018-02-21T13:43:24.402Z,9.50
2018-02-21T13:45:52.301Z,9.50
2018-02-21T13:48:19.754Z,9.50
2018-02-21T13:50:47.295Z,9.80
2018-02-21T13:53:14.741Z,9.80
2018-02-21T13:55:42.224Z,9.80
2018-02-21T13:58:09.765Z,9.40
2018-02-21T14:00:37.660Z,8.70
2018-02-21T14:03:06.306Z,7.50
2018-02-21T14:05:33.758Z,7.50
2018-02-21T14:08:01.840Z,7.20
2018-02-21T14:10:29.305Z,6.80
2018-02-21T14:12:57.530Z,6.40
2018-02-21T14:15:25.413Z,6.40
2018-02-21T14:17:53.340Z,6.50
2018-02-21T14:20:21.557Z,7.00
2018-02-21T14:22:49.009Z,7.00
2018-02-21T14:25:16.502Z,7.40
2018-02-21T14:27:44.362Z,7.90
2018-02-21T14:30:13.307Z,8.70
2018-02-21T14:32:40.769Z,8.70
2018-02-21T14:35:08.221Z,9.00
2018-02-21T14:37:36.249Z,9.20
2018-02-21T14:40:03.718Z,9.10
2018-02-21T14:42:32.664Z,8.70
2018-02-21T14:45:00.234Z,8.70
2018-02-21T14:47:27.799Z,8.70
2018-02-21T14:49:56.009Z,8.40
2018-02-21T14:52:24.700Z,8.20
2018-02-21T14:54:53.485Z,8.30
2018-02-21T14:57:22.267Z,8.60
2018-02-21T14:59:50.481Z,9.20
2018-02-21T15:02:17.948Z,9.20
2018-02-21T15:04:45.762Z,9.10
2018-02-21T15:07:14.402Z,8.10
2018-02-21T15:09:43.094Z,8.10
2018-02-21T15:12:10.961Z,7.50
2018-02-21T15:14:38.421Z,6.80
2018-02-21T15:17:06.072Z,6.40
2018-02-21T15:19:33.549Z,6.00
2018-02-21T15:22:01.100Z,5.60
2018-02-21T15:24:28.546Z,5.50
2018-02-21T15:26:56.005Z,5.40
2018-02-21T15:29:23.461Z,5.30
2018-02-21T15:34:29.372Z,5.00
2018-02-21T15:36:57.608Z,4.70
2018-02-21T15:39:25.053Z,4.70
2018-02-21T15:41:52.966Z,4.70
2018-02-21T15:44:21.193Z,4.50
2018-02-21T15:46:49.410Z,4.30
2018-02-21T15:49:17.628Z,4.20
2018-02-21T15:51:45.092Z,4.10
2018-02-21T15:54:12.548Z,4.00
2018-02-21T15:56:40.006Z,4.00
2018-02-21T15:59:07.464Z,3.90
2018-02-21T16:01:34.919Z,3.80
2018-02-21T16:04:02.362Z,3.80
2018-02-21T16:06:32.941Z,3.70
2018-02-21T16:09:00.821Z,3.60
2018-02-21T16:11:29.473Z,3.50
2018-02-21T16:13:56.975Z,3.40
2018-02-21T16:16:24.396Z,3.50
2018-02-21T16:18:51.850Z,3.60
2018-02-21T16:21:19.297Z,3.70
2018-02-21T16:23:46.770Z,3.70
2018-02-21T16:26:14.217Z,3.60
2018-02-21T16:28:41.677Z,3.40
2018-02-21T16:31:09.139Z,3.30
2018-02-21T16:33:37.338Z,3.10
2018-02-21T16:36:05.774Z,2.90
2018-02-21T16:38:33.229Z,2.90
2018-02-21T16:41:00.689Z,2.90
2018-02-21T16:43:28.358Z,2.80
2018-02-21T16:45:55.809Z,2.60
2018-02-21T16:48:23.261Z,2.50
2018-02-21T16:50:50.777Z,2.40
2018-02-21T16:53:18.217Z,2.40
2018-02-21T16:55:46.497Z,2.30
2018-02-21T16:58:15.141Z,2.20
2018-02-21T17:00:42.597Z,2.20
2018-02-21T17:03:10.456Z,2.20
2018-02-21T17:05:37.917Z,2.20
2018-02-21T17:08:05.369Z,2.10
2018-02-21T17:10:33.358Z,2.00
2018-02-21T17:13:01.595Z,1.90
2018-02-21T17:15:29.050Z,1.90
2018-02-21T17:17:57.044Z,2.00
2018-02-21T17:20:24.550Z,1.90
2018-02-21T17:22:53.653Z,1.80
2018-02-21T17:25:21.106Z,1.80
2018-02-21T17:27:48.668Z,1.70
2018-02-21T17:30:19.480Z,1.60
2018-02-21T17:32:46.932Z,1.50
2018-02-21T17:35:15.145Z,1.40
2018-02-21T17:37:42.606Z,1.40
2018-02-21T17:40:10.842Z,1.30
2018-02-21T17:42:38.297Z,1.40
2018-02-21T17:45:05.966Z,1.40
2018-02-21T17:47:33.425Z,1.30
2018-02-21T17:50:00.887Z,1.30
2018-02-21T17:52:28.340Z,1.30
2018-02-21T17:54:55.807Z,1.30
2018-02-21T17:57:23.266Z,1.30
2018-02-21T17:59:51.405Z,1.30
2018-02-21T18:02:18.887Z,1.20
2018-02-21T18:04:46.469Z,1.20
2018-02-21T18:07:16.362Z,1.20
2018-02-21T18:09:44.359Z,1.10
2018-02-21T18:12:11.804Z,1.10
2018-02-21T18:14:39.256Z,1.10
2018-02-21T18:17:07.350Z,1.10
2018-02-21T18:19:37.373Z,1.10
2018-02-21T18:22:04.821Z,1.10
2018-02-21T18:24:32.276Z,1.00
2018-02-21T18:26:59.730Z,1.00
2018-02-21T18:29:28.509Z,1.00
2018-02-21T18:31:55.965Z,1.00
2018-02-21T18:34:23.674Z,1.00
2018-02-21T18:36:53.166Z,0.90
2018-02-21T18:39:21.130Z,0.90
2018-02-21T18:41:49.021Z,0.90
2018-02-21T18:44:16.469Z,0.90
2018-02-21T18:46:45.118Z,0.90
2018-02-21T18:49:12.577Z,0.90
2018-02-21T18:51:40.034Z,0.80
2018-02-21T18:54:07.490Z,0.80
2018-02-21T18:56:35.722Z,0.70
2018-02-21T18:59:03.195Z,0.60
2018-02-21T19:01:33.233Z,0.60
2018-02-21T19:04:00.681Z,0.50
2018-02-21T19:06:29.002Z,0.50
2018-02-21T19:08:57.758Z,0.30
2018-02-21T19:11:25.201Z,0.30
2018-02-21T19:13:52.662Z,0.30
2018-02-21T19:16:20.227Z,0.30
2018-02-21T19:18:47.690Z,0.30
2018-02-21T19:21:15.919Z,0.20
2018-02-21T19:23:43.381Z,0.10
2018-02-21T19:26:10.829Z,0.20
2018-02-21T19:28:38.285Z,0.10
2018-02-21T19:31:06.271Z,0.10
2018-02-21T19:33:33.742Z,0.00
2018-02-21T19:36:01.766Z,0.00
2018-02-21T19:38:29.226Z,0.00
2018-02-21T19:40:56.734Z,0.00
2018-02-21T19:43:24.194Z,0.00
2018-02-21T19:45:52.433Z,-0.10
2018-02-21T19:48:20.584Z,-0.20
2018-02-21T19:50:48.053Z,-0.20
2018-02-21T19:53:15.544Z,-0.20
2018-02-21T19:55:43.101Z,-0.30
2018-02-21T19:58:11.004Z,-0.40
2018-02-21T20:00:39.225Z,-0.30
2018-02-21T20:03:09.148Z,-0.30
2018-02-21T20:05:36.609Z,-0.30
2018-02-21T20:08:04.070Z,-0.40
2018-02-21T20:10:33.974Z,-0.50
2018-02-21T20:13:01.434Z,-0.50
2018-02-21T20:15:28.893Z,-0.60
2018-02-21T20:17:56.354Z,-0.60
2018-02-21T20:20:23.954Z,-0.70
2018-02-21T20:22:52.177Z,-0.70
2018-02-21T20:25:19.643Z,-0.70
2018-02-21T20:27:47.098Z,-0.70
2018-02-21T20:30:14.572Z,-0.70
2018-02-21T20:32:42.029Z,-0.70
2018-02-21T20:35:09.488Z,-0.80
2018-02-21T20:37:36.945Z,-0.80
2018-02-21T20:40:04.829Z,-0.90
2018-02-21T20:42:33.050Z,-1.00
2018-02-21T20:45:00.543Z,-1.00
2018-02-21T20:47:28.970Z,-1.00
2018-02-21T20:49:56.566Z,-1.10
2018-02-21T20:52:24.021Z,-1.00
2018-02-21T20:54:51.481Z,-1.00
2018-02-21T20:57:19.033Z,-1.10
2018-02-21T20:59:46.596Z,-1.10
2018-02-21T21:02:14.062Z,-1.10
2018-02-21T21:04:42.294Z,-1.20
2018-02-21T21:07:09.996Z,-1.20
2018-02-21T21:09:37.451Z,-1.20
2018-02-21T21:12:09.541Z,-1.30
2018-02-21T21:14:38.186Z,-1.30
2018-02-21T21:17:05.642Z,-1.30
2018-02-21T21:19:33.094Z,-1.30
2018-02-21T21:22:02.725Z,-1.30
2018-02-21T21:24:30.954Z,-1.50
2018-02-21T21:26:58.414Z,-1.50
2018-02-21T21:29:25.907Z,-1.50
2018-02-21T21:31:53.556Z,-1.60
2018-02-21T21:34:21.287Z,-1.60
2018-02-21T21:36:48.746Z,-1.60
2018-02-21T21:39:16.203Z,-1.60
2018-02-21T21:41:43.665Z,-1.70
2018-02-21T21:44:11.122Z,-1.80
2018-02-21T21:46:39.149Z,-1.80
2018-02-21T21:49:07.377Z,-1.70
2018-02-21T21:51:35.314Z,-1.70
2018-02-21T21:54:02.808Z,-1.70
2018-02-21T21:56:30.308Z,-1.80
2018-02-21T21:58:57.755Z,-1.70
2018-02-21T22:01:26.524Z,-1.70
2018-02-21T22:03:54.080Z,-1.80
2018-02-21T22:06:24.093Z,-1.80
2018-02-21T22:08:51.547Z,-1.90
2018-02-21T22:11:19.705Z,-1.90
2018-02-21T22:13:47.462Z,-1.90
2018-02-21T22:16:14.924Z,-2.00
2018-02-21T22:18:42.377Z,-2.10
2018-02-21T22:21:09.864Z,-2.10
2018-02-21T22:23:38.086Z,-2.10
2018-02-21T22:26:05.577Z,-2.20
2018-02-21T22:28:33.135Z,-2.20
2018-02-21T22:31:01.047Z,-2.30
2018-02-21T22:33:28.943Z,-2.30
2018-02-21T22:35:56.429Z,-2.30
2018-02-21T22:38:23.893Z,-2.30
2018-02-21T22:40:52.120Z,-2.40
2018-02-21T22:43:19.580Z,-2.40
2018-02-21T22:45:47.462Z,-2.50
2018-02-21T22:48:14.932Z,-2.50
2018-02-21T22:50:42.801Z,-2.50
2018-02-21T22:53:10.265Z,-2.50
2018-02-21T22:55:37.813Z,-2.50
2018-02-21T22:58:05.276Z,-2.50
2018-02-21T23:00:33.297Z,-2.50
2018-02-21T23:03:00.770Z,-2.60
2018-02-21T23:05:29.403Z,-2.60
2018-02-21T23:07:59.226Z,-2.70
2018-02-21T23:10:27.447Z,-2.70
2018-02-21T23:12:54.906Z,-2.70
2018-02-21T23:15:22.370Z,-2.70
2018-02-21T23:17:49.825Z,-2.70
2018-02-21T23:20:19.122Z,-2.70
2018-02-21T23:22:46.582Z,-2.80
2018-02-21T23:25:14.048Z,-2.80
2018-02-21T23:27:41.945Z,-2.90
2018-02-21T23:30:10.174Z,-2.80
2018-02-21T23:32:37.636Z,-2.80
2018-02-21T23:35:05.789Z,-2.80
2018-02-21T23:37:33.258Z,-2.80
2018-02-21T23:40:00.713Z,-2.80
2018-02-21T23:42:28.670Z,-2.80
2018-02-21T23:44:56.129Z,-2.70
2018-02-21T23:47:23.589Z,-2.70
2018-02-21T23:49:51.044Z,-2.70
2018-02-21T23:52:18.926Z,-2.80
2018-02-21T23:54:46.378Z,-2.70
2018-02-21T23:57:13.883Z,-2.80
2018-02-21T23:59:42.805Z,-2.70
